Time;durP1;ratioP1;P1;durP2;ratioP2;P2;SDS_P1;SDS_P2;PMS_P1;PMS_P2;Temp;Humidity;BMP_temperature;BMP_pressure;BME280_temperature;BME280_humidity;BME280_pressure;Samples;Min_cycle;Max_cycle;Signal;HPM_P1;HPM_P2
2024/02/11 00:00:36;;;;;;;30.15;25.20;;;9.60;99.90;;;;;;7374841;19;20015;-63
2024/02/11 00:03:02;;;;;;;33.53;29.90;;;9.70;99.90;;;;;;7379350;19;20015;-63
2024/02/11 00:05:29;;;;;;;32.72;28.75;;;9.70;99.90;;;;;;7370712;19;20429;-65
2024/02/11 00:07:55;;;;;;;33.95;30.38;;;9.70;99.90;;;;;;7385939;19;20014;-65
2024/02/11 00:10:23;;;;;;;33.20;27.92;;;9.70;99.90;;;;;;7385846;19;20018;-66
2024/02/11 00:12:49;;;;;;;44.63;39.72;;;9.70;99.90;;;;;;7384604;19;20612;-66
2024/02/11 00:15:16;;;;;;;40.30;34.75;;;9.70;99.90;;;;;;7381092;19;20035;-64
2024/02/11 00:17:45;;;;;;;36.50;32.60;;;9.70;99.90;;;;;;7372434;19;20022;-64
2024/02/11 00:20:14;;;;;;;38.30;30.73;;;9.80;99.90;;;;;;7377899;19;20019;-66
2024/02/11 00:22:41;;;;;;;42.33;35.67;;;9.80;99.90;;;;;;7380907;19;20403;-65
2024/02/11 00:25:09;;;;;;;42.95;35.58;;;9.80;99.90;;;;;;7382983;19;20011;-64
2024/02/11 00:27:44;;;;;;;34.80;29.58;;;9.80;99.90;;;;;;7372727;19;20035;-64
2024/02/11 00:30:11;;;;;;;35.72;30.02;;;9.80;99.90;;;;;;7372622;19;20022;-64
2024/02/11 00:32:38;;;;;;;34.90;30.70;;;9.80;99.90;;;;;;7378513;19;20473;-66
2024/02/11 00:35:05;;;;;;;34.83;31.08;;;9.80;99.90;;;;;;7385473;19;20498;-66
2024/02/11 00:37:31;;;;;;;39.05;33.85;;;9.80;99.90;;;;;;7384135;19;20018;-66
2024/02/11 00:39:57;;;;;;;33.88;29.23;;;9.80;99.90;;;;;;7382585;19;20019;-66
2024/02/11 00:42:27;;;;;;;36.75;31.50;;;9.80;99.90;;;;;;7377956;19;20019;-64
2024/02/11 00:44:56;;;;;;;38.58;33.20;;;9.80;99.90;;;;;;7372103;19;20014;-64
2024/02/11 00:47:23;;;;;;;33.70;28.13;;;9.90;99.90;;;;;;7371105;19;20015;-65
2024/02/11 00:49:49;;;;;;;35.45;31.02;;;9.80;99.90;;;;;;7373844;19;20035;-64
2024/02/11 00:52:18;;;;;;;38.30;33.85;;;9.80;99.90;;;;;;7371439;19;20053;-64
2024/02/11 00:54:44;;;;;;;37.20;30.10;;;9.80;99.90;;;;;;7381976;19;20418;-66
2024/02/11 00:57:11;;;;;;;35.22;29.83;;;9.80;99.90;;;;;;7374189;19;20010;-64
2024/02/11 00:59:41;;;;;;;39.60;32.45;;;9.80;99.90;;;;;;7377439;19;20014;-66
2024/02/11 01:02:07;;;;;;;34.63;28.00;;;9.80;99.90;;;;;;7376462;19;20015;-64
2024/02/11 01:04:38;;;;;;;40.00;31.58;;;9.80;99.90;;;;;;7374886;19;20019;-64
2024/02/11 01:07:05;;;;;;;33.50;25.90;;;9.80;99.90;;;;;;7371905;19;20037;-64
2024/02/11 01:09:33;;;;;;;39.15;30.63;;;9.80;99.90;;;;;;7384048;19;20490;-66
2024/02/11 01:11:59;;;;;;;34.85;26.63;;;9.80;99.90;;;;;;7390271;19;20486;-66
2024/02/11 01:14:31;;;;;;;38.03;31.63;;;9.80;99.90;;;;;;7391122;19;20664;-66
2024/02/11 01:16:58;;;;;;;;;;;9.80;99.90;;;;;;7389616;19;20022;-64
2024/02/11 01:19:24;;;;;;;36.15;30.85;;;9.80;99.90;;;;;;7388188;19;20002;-64
2024/02/11 01:21:53;;;;;;;38.30;30.98;;;9.80;99.90;;;;;;7386159;19;20414;-65
2024/02/11 01:24:19;;;;;;;37.78;31.77;;;9.80;99.90;;;;;;7382330;19;20046;-66
2024/02/11 01:26:46;;;;;;;23.80;18.45;;;9.80;99.90;;;;;;7381391;19;20800;-63
2024/02/11 01:29:12;;;;;;;36.92;29.45;;;9.80;99.90;;;;;;7386026;19;20025;-63
2024/02/11 01:31:39;;;;;;;42.17;33.88;;;9.80;99.90;;;;;;7377512;19;20014;-64
2024/02/11 01:34:06;;;;;;;34.95;30.38;;;9.80;99.90;;;;;;7379748;19;20045;-64
2024/02/11 01:36:34;;;;;;;33.92;27.48;;;9.80;99.90;;;;;;7379180;19;20445;-66
2024/02/11 01:39:01;;;;;;;34.42;28.83;;;9.80;99.90;;;;;;7392188;19;20042;-66
2024/02/11 01:41:28;;;;;;;34.10;25.83;;;9.80;99.90;;;;;;7390677;19;20035;-66
2024/02/11 01:43:58;;;;;;;31.73;23.13;;;9.80;99.90;;;;;;7386898;19;20022;-66
2024/02/11 01:46:25;;;;;;;34.97;28.70;;;9.70;99.90;;;;;;7378265;19;20090;-64
2024/02/11 01:48:53;;;;;;;37.55;28.35;;;9.70;99.90;;;;;;7382211;19;20014;-66
2024/02/11 01:51:23;;;;;;;35.33;24.85;;;9.70;99.90;;;;;;7381590;19;20021;-63
2024/02/11 01:53:50;;;;;;;31.98;23.75;;;9.70;99.90;;;;;;7380634;19;20070;-63
2024/02/11 01:56:20;;;;;;;29.38;24.45;;;9.70;99.90;;;;;;7370086;19;20082;-64
2024/02/11 01:58:49;;;;;;;33.13;26.33;;;9.80;99.90;;;;;;7376429;19;20086;-64
2024/02/11 02:01:25;;;;;;;33.72;26.63;;;9.80;99.90;;;;;;7385510;19;20086;-66
2024/02/11 02:03:52;;;;;;;31.48;26.33;;;9.70;99.90;;;;;;7390750;19;20086;-65
2024/02/11 02:06:18;;;;;;;36.83;27.63;;;9.70;99.90;;;;;;7389597;19;20025;-65
2024/02/11 02:08:45;;;;;;;35.70;29.10;;;9.70;99.90;;;;;;7389282;19;20480;-65
2024/02/11 02:11:11;;;;;;;34.78;27.60;;;9.70;99.90;;;;;;7389708;19;20355;-65
2024/02/11 02:13:38;;;;;;;34.08;27.95;;;9.70;99.90;;;;;;7390311;19;20086;-65
2024/02/11 02:16:09;;;;;;;25.83;19.63;;;9.70;99.90;;;;;;7383956;19;20022;-63
2024/02/11 02:18:36;;;;;;;32.15;25.40;;;9.70;99.90;;;;;;7382956;19;20045;-65
2024/02/11 02:21:06;;;;;;;34.67;27.30;;;9.70;99.90;;;;;;7387804;19;20077;-65
2024/02/11 02:23:33;;;;;;;32.85;24.52;;;9.70;99.90;;;;;;7391551;19;20010;-65
2024/02/11 02:26:07;;;;;;;34.60;26.60;;;9.70;99.90;;;;;;7387335;19;20031;-68
2024/02/11 02:28:34;;;;;;;33.42;26.02;;;9.70;99.90;;;;;;7387842;19;20485;-65
2024/02/11 02:31:02;;;;;;;35.92;26.92;;;9.70;99.90;;;;;;7389028;19;20440;-65
2024/02/11 02:33:30;;;;;;;34.95;26.45;;;9.70;99.90;;;;;;7386053;19;20018;-65
2024/02/11 02:35:56;;;;;;;32.25;24.05;;;9.60;99.90;;;;;;7375605;19;20779;-65
2024/02/11 02:38:23;;;;;;;34.35;26.67;;;9.60;99.90;;;;;;7386355;19;20035;-66
2024/02/11 02:40:50;;;;;;;33.72;24.98;;;9.60;99.90;;;;;;7387972;19;20018;-65
2024/02/11 02:43:17;;;;;;;34.95;27.13;;;9.60;99.90;;;;;;7383318;19;20176;-65
2024/02/11 02:45:43;;;;;;;34.88;24.98;;;9.60;99.90;;;;;;7386269;19;20340;-66
2024/02/11 02:48:10;;;;;;;35.47;26.75;;;9.60;99.90;;;;;;7385779;19;20089;-65
2024/02/11 02:50:37;;;;;;;36.22;24.52;;;9.60;99.90;;;;;;7385789;19;20097;-66
2024/02/11 02:53:07;;;;;;;35.35;26.33;;;9.60;99.90;;;;;;7389488;19;20522;-64
2024/02/11 02:55:34;;;;;;;34.10;23.75;;;9.60;99.90;;;;;;7385779;19;20014;-65
2024/02/11 02:58:01;;;;;;;35.83;25.35;;;9.60;99.90;;;;;;7385243;19;20666;-66
2024/02/11 03:00:27;;;;;;;41.55;30.35;;;9.60;99.90;;;;;;7386405;19;20018;-66
2024/02/11 03:02:54;;;;;;;41.03;29.45;;;9.60;99.90;;;;;;7386522;19;20085;-66
2024/02/11 03:05:22;;;;;;;33.70;25.55;;;9.60;99.90;;;;;;7390143;19;20018;-66
2024/02/11 03:07:53;;;;;;;37.38;25.90;;;9.60;99.90;;;;;;7386740;19;20029;-66
2024/02/11 03:10:20;;;;;;;32.15;23.08;;;9.60;99.90;;;;;;7386305;19;20102;-64
2024/02/11 03:12:46;;;;;;;40.67;27.42;;;9.60;99.90;;;;;;7388245;19;20450;-66
2024/02/11 03:15:13;;;;;;;38.00;26.00;;;9.60;99.90;;;;;;7389175;19;20018;-65
2024/02/11 03:17:41;;;;;;;39.72;26.42;;;9.60;99.90;;;;;;7387373;19;20023;-66
2024/02/11 03:20:09;;;;;;;38.20;25.02;;;9.60;99.90;;;;;;7386152;19;20034;-66
2024/02/11 03:22:35;;;;;;;40.17;26.08;;;9.50;99.90;;;;;;7381752;19;20011;-63
2024/02/11 03:25:02;;;;;;;40.50;26.33;;;9.50;99.90;;;;;;7376685;19;20860;-64
2024/02/11 03:27:30;;;;;;;38.85;22.80;;;9.50;99.90;;;;;;7375465;19;20026;-64
2024/02/11 03:29:56;;;;;;;38.72;24.30;;;9.50;99.90;;;;;;7375744;19;20780;-64
2024/02/11 03:32:22;;;;;;;37.83;24.83;;;9.50;99.90;;;;;;7383602;19;20022;-66
2024/02/11 03:34:49;;;;;;;36.13;23.73;;;9.50;99.90;;;;;;7380898;19;20030;-63
2024/02/11 03:37:16;;;;;;;42.35;26.67;;;9.50;99.90;;;;;;7373528;19;20022;-65
2024/02/11 03:39:43;;;;;;;39.80;25.85;;;9.50;99.90;;;;;;7376531;19;20369;-64
2024/02/11 03:42:09;;;;;;;40.42;25.38;;;9.50;99.90;;;;;;7373371;19;20023;-64
2024/02/11 03:44:35;;;;;;;39.55;23.52;;;9.50;99.90;;;;;;7377008;19;20045;-64
2024/02/11 03:47:04;;;;;;;38.63;22.65;;;9.50;99.90;;;;;;7375108;19;20503;-63
2024/02/11 03:49:30;;;;;;;42.95;24.60;;;9.50;99.90;;;;;;7378191;19;20490;-63
2024/02/11 03:51:56;;;;;;;38.67;24.20;;;9.50;99.90;;;;;;7378584;19;20014;-64
2024/02/11 03:54:25;;;;;;;30.13;18.60;;;9.50;99.90;;;;;;7377388;19;20022;-62
2024/02/11 03:56:51;;;;;;;32.05;20.33;;;9.50;99.90;;;;;;7372145;19;20022;-64
2024/02/11 03:59:17;;;;;;;38.58;23.17;;;9.50;99.90;;;;;;7377888;19;20006;-63
2024/02/11 04:01:46;;;;;;;31.10;19.02;;;9.50;99.90;;;;;;7382618;19;20017;-66
2024/02/11 04:04:17;;;;;;;37.38;22.25;;;9.40;99.90;;;;;;7381488;19;20022;-65
2024/02/11 04:06:44;;;;;;;35.17;21.08;;;9.40;99.90;;;;;;7379517;19;20054;-63
2024/02/11 04:09:13;;;;;;;40.13;22.73;;;9.40;99.90;;;;;;7376994;19;20530;-63
2024/02/11 04:11:41;;;;;;;41.88;23.88;;;9.40;99.90;;;;;;7371607;19;20018;-63
2024/02/11 04:14:12;;;;;;;37.85;22.50;;;9.40;99.90;;;;;;7375052;19;20094;-63
2024/02/11 04:16:43;;;;;;;42.22;23.23;;;9.40;99.90;;;;;;7376520;19;20010;-65
2024/02/11 04:19:11;;;;;;;39.38;23.13;;;9.40;99.90;;;;;;7377908;19;20019;-64
2024/02/11 04:21:40;;;;;;;40.47;22.33;;;9.40;99.90;;;;;;7373418;19;20074;-64
2024/02/11 04:24:10;;;;;;;45.90;26.85;;;9.40;99.90;;;;;;7375916;19;20014;-65
2024/02/11 04:26:39;;;;;;;45.97;24.02;;;9.40;99.90;;;;;;7383964;19;20343;-63
2024/02/11 04:29:10;;;;;;;45.20;25.08;;;9.40;99.90;;;;;;7380240;19;20026;-63
2024/02/11 04:31:39;;;;;;;48.58;26.25;;;9.40;99.90;;;;;;7375453;19;20058;-64
2024/02/11 04:34:08;;;;;;;46.50;24.73;;;9.30;99.90;;;;;;7381310;19;20518;-64
2024/02/11 04:36:36;;;;;;;46.58;24.90;;;9.40;99.90;;;;;;7385110;19;20027;-65
2024/02/11 04:39:07;;;;;;;48.00;24.90;;;9.40;99.90;;;;;;7383384;19;20018;-65
2024/02/11 04:41:36;;;;;;;46.05;24.63;;;9.30;99.90;;;;;;7378486;19;20605;-64
2024/02/11 04:44:06;;;;;;;54.17;26.95;;;9.30;99.90;;;;;;7372729;19;20014;-64
2024/02/11 04:46:34;;;;;;;52.25;25.67;;;9.40;99.90;;;;;;7388940;19;20018;-64
2024/02/11 04:49:00;;;;;;;51.80;26.27;;;9.30;99.90;;;;;;7383314;19;20022;-63
2024/02/11 04:51:30;;;;;;;56.03;27.27;;;9.40;99.90;;;;;;7382762;19;20018;-63
2024/02/11 04:53:57;;;;;;;58.38;28.52;;;9.30;99.90;;;;;;7383238;19;20014;-65
2024/02/11 04:56:27;;;;;;;54.47;28.00;;;9.40;99.90;;;;;;7384682;19;20479;-63
2024/02/11 04:58:54;;;;;;;51.53;26.52;;;9.30;99.90;;;;;;7390182;19;20376;-66
2024/02/11 05:01:20;;;;;;;49.15;23.98;;;9.30;99.90;;;;;;7392391;19;20530;-65
2024/02/11 05:03:47;;;;;;;58.40;30.20;;;9.40;99.90;;;;;;7383798;19;20098;-64
2024/02/11 05:06:18;;;;;;;55.80;29.38;;;9.30;99.90;;;;;;7381507;19;20042;-63
2024/02/11 05:08:46;;;;;;;64.05;29.05;;;9.30;99.90;;;;;;7388694;19;20022;-65
2024/02/11 05:11:13;;;;;;;63.10;29.75;;;9.30;99.90;;;;;;7390714;19;20478;-66
2024/02/11 05:13:39;;;;;;;56.10;28.88;;;9.30;99.90;;;;;;7389901;19;20035;-66
2024/02/11 05:16:08;;;;;;;64.72;31.55;;;9.30;99.90;;;;;;7381185;19;20704;-64
2024/02/11 05:18:38;;;;;;;65.22;32.65;;;9.30;99.90;;;;;;7379482;19;20022;-63
2024/02/11 05:21:04;;;;;;;71.53;31.38;;;9.40;99.90;;;;;;7379188;19;20493;-63
2024/02/11 05:23:32;;;;;;;66.35;29.23;;;9.40;99.90;;;;;;7389506;19;20015;-65
2024/02/11 05:26:01;;;;;;;71.15;33.50;;;9.30;99.90;;;;;;7392090;19;20010;-65
2024/02/11 05:28:27;;;;;;;74.43;32.85;;;9.40;99.90;;;;;;7388560;19;20035;-65
2024/02/11 05:30:55;;;;;;;75.90;32.85;;;9.40;99.90;;;;;;7389283;19;20022;-65
2024/02/11 05:33:22;;;;;;;73.70;34.83;;;9.30;99.90;;;;;;7388522;19;20371;-65
2024/02/11 05:35:50;;;;;;;75.82;36.33;;;9.40;99.90;;;;;;7389849;19;20027;-65
2024/02/11 05:38:19;;;;;;;81.13;36.17;;;9.40;99.90;;;;;;7385021;19;20104;-65
2024/02/11 05:40:48;;;;;;;86.80;37.33;;;9.40;99.90;;;;;;7382760;19;20015;-66
2024/02/11 05:43:15;;;;;;;79.93;33.85;;;9.40;99.90;;;;;;7385707;19;20360;-65
2024/02/11 05:45:46;;;;;;;83.55;38.15;;;9.40;99.90;;;;;;7387467;19;20365;-66
2024/02/11 05:48:14;;;;;;;94.60;38.50;;;9.40;99.90;;;;;;7388212;19;20081;-65
2024/02/11 05:50:41;;;;;;;77.78;37.30;;;9.40;99.90;;;;;;7387980;19;20018;-65
2024/02/11 05:53:08;;;;;;;86.55;38.00;;;9.40;99.90;;;;;;7377667;19;20039;-64
2024/02/11 05:55:38;;;;;;;85.70;38.67;;;9.40;99.90;;;;;;7372887;19;20023;-63
2024/02/11 05:58:05;;;;;;;82.82;35.33;;;9.40;99.90;;;;;;7383600;19;20081;-65
2024/02/11 06:00:32;;;;;;;88.78;41.33;;;9.40;99.90;;;;;;7380105;19;20504;-65
2024/02/11 06:03:00;;;;;;;89.82;38.88;;;9.40;99.90;;;;;;7382213;19;20499;-65
2024/02/11 06:05:27;;;;;;;85.88;40.20;;;9.40;99.90;;;;;;7373510;19;20074;-66
2024/02/11 06:08:00;;;;;;;79.82;34.90;;;9.40;99.90;;;;;;7384755;19;20390;-65
2024/02/11 06:10:33;;;;;;;81.10;35.95;;;9.40;99.90;;;;;;7386811;19;20018;-66
2024/02/11 06:13:01;;;;;;;85.70;38.53;;;9.40;99.90;;;;;;7388299;19;20015;-66
2024/02/11 06:15:29;;;;;;;88.28;41.78;;;9.40;99.90;;;;;;7386099;19;20423;-66
2024/02/11 06:18:01;;;;;;;77.53;37.10;;;9.40;99.90;;;;;;7388260;19;20018;-66
2024/02/11 06:20:29;;;;;;;87.68;42.53;;;9.40;99.90;;;;;;7390823;19;20022;-66
2024/02/11 06:22:56;;;;;;;76.53;34.90;;;9.40;99.90;;;;;;7384878;19;20120;-65
2024/02/11 06:25:24;;;;;;;81.15;38.10;;;9.40;99.90;;;;;;7384127;19;20018;-65
2024/02/11 06:27:56;;;;;;;85.45;41.17;;;9.40;99.90;;;;;;7375975;19;20019;-65
2024/02/11 06:30:24;;;;;;;84.53;40.33;;;9.40;99.90;;;;;;7381648;19;20118;-65
2024/02/11 06:32:53;;;;;;;89.13;41.97;;;9.50;99.90;;;;;;7384870;19;20375;-65
2024/02/11 06:35:24;;;;;;;87.70;42.47;;;9.40;99.90;;;;;;7383942;19;20074;-64
2024/02/11 06:37:56;;;;;;;87.70;41.05;;;9.40;99.90;;;;;;7388519;19;20020;-65
2024/02/11 06:40:25;;;;;;;83.75;41.03;;;9.40;99.90;;;;;;7388885;19;20416;-65
2024/02/11 06:42:52;;;;;;;83.07;42.00;;;9.40;99.90;;;;;;7379151;19;20015;-65
2024/02/11 06:45:20;;;;;;;91.65;42.22;;;9.40;99.90;;;;;;7383525;19;20031;-64
2024/02/11 06:47:47;;;;;;;86.28;41.33;;;9.40;99.90;;;;;;7373675;19;20031;-64
2024/02/11 06:50:18;;;;;;;79.32;41.67;;;9.40;99.90;;;;;;7374853;19;20014;-65
2024/02/11 06:52:48;;;;;;;80.82;40.50;;;9.40;99.90;;;;;;7377589;19;20018;-64
2024/02/11 06:55:18;;;;;;;80.88;41.17;;;9.40;99.90;;;;;;7385572;19;20027;-65
2024/02/11 06:57:47;;;;;;;79.07;39.53;;;9.40;99.90;;;;;;7385196;19;20014;-65
2024/02/11 07:00:14;;;;;;;73.65;39.08;;;9.40;99.90;;;;;;7385723;19;20370;-65
2024/02/11 07:02:41;;;;;;;80.65;41.00;;;9.40;99.90;;;;;;7388027;19;20387;-65
2024/02/11 07:05:10;;;;;;;73.90;38.97;;;9.40;99.90;;;;;;7391664;19;20708;-65
2024/02/11 07:07:37;;;;;;;81.22;41.53;;;9.40;99.90;;;;;;7384387;19;20017;-65
2024/02/11 07:10:04;;;;;;;82.20;42.65;;;9.40;99.90;;;;;;7391822;19;20057;-65
2024/02/11 07:12:30;;;;;;;79.50;41.17;;;9.40;99.90;;;;;;7382531;19;20557;-62
2024/02/11 07:14:57;;;;;;;84.90;49.67;;;9.40;99.90;;;;;;7378895;19;20045;-63
2024/02/11 07:17:23;;;;;;;83.13;45.63;;;9.40;99.90;;;;;;7376287;19;20015;-64
2024/02/11 07:19:50;;;;;;;82.15;45.03;;;9.40;99.90;;;;;;7392058;19;20014;-65
2024/02/11 07:22:17;;;;;;;81.45;41.72;;;9.40;99.90;;;;;;7391691;19;20420;-64
2024/02/11 07:24:48;;;;;;;78.20;40.70;;;9.40;99.90;;;;;;7389742;19;20025;-64
2024/02/11 07:27:15;;;;;;;75.45;42.15;;;9.40;99.90;;;;;;7387592;19;20019;-65
2024/02/11 07:29:42;;;;;;;76.63;40.20;;;9.40;99.90;;;;;;7386697;19;20482;-65
2024/02/11 07:32:12;;;;;;;81.93;41.47;;;9.40;99.90;;;;;;7384357;19;20022;-65
2024/02/11 07:34:39;;;;;;;71.55;40.28;;;9.40;99.90;;;;;;7387104;19;20010;-65
2024/02/11 07:37:09;;;;;;;75.43;41.13;;;9.50;99.90;;;;;;7382152;19;20450;-65
2024/02/11 07:39:35;;;;;;;83.00;42.10;;;9.50;99.90;;;;;;7385067;19;20019;-65
2024/02/11 07:42:01;;;;;;;72.75;40.45;;;9.50;99.90;;;;;;7385063;19;20014;-63
2024/02/11 07:44:28;;;;;;;78.03;41.67;;;9.50;99.90;;;;;;7371858;19;20030;-64
2024/02/11 07:46:54;;;;;;;75.70;40.92;;;9.50;99.90;;;;;;7375157;19;20366;-65
2024/02/11 07:49:21;;;;;;;75.68;41.00;;;9.50;99.90;;;;;;7382109;19;20014;-66
2024/02/11 07:51:48;;;;;;;73.95;40.75;;;9.50;99.90;;;;;;7384366;19;20014;-66
2024/02/11 07:54:14;;;;;;;69.60;39.15;;;9.50;99.90;;;;;;7385253;19;20010;-64
2024/02/11 07:56:43;;;;;;;71.93;39.45;;;9.50;99.90;;;;;;7383659;19;20014;-65
2024/02/11 07:59:11;;;;;;;73.85;41.58;;;9.50;99.90;;;;;;7375528;19;20029;-65
2024/02/11 08:01:37;;;;;;;73.57;40.17;;;9.50;99.90;;;;;;7382101;19;20026;-65
2024/02/11 08:04:04;;;;;;;74.80;42.78;;;9.50;99.90;;;;;;7384744;19;20015;-66
2024/02/11 08:06:32;;;;;;;70.70;40.65;;;9.50;99.90;;;;;;7382138;19;20023;-65
2024/02/11 08:08:58;;;;;;;73.72;42.58;;;9.60;99.90;;;;;;7378441;19;20379;-64
2024/02/11 08:11:25;;;;;;;75.03;40.13;;;9.50;99.90;;;;;;7373219;19;20026;-65
2024/02/11 08:13:54;;;;;;;90.78;52.22;;;9.50;99.90;;;;;;7369448;19;20537;-64
2024/02/11 08:16:25;;;;;;;73.10;40.45;;;9.50;99.90;;;;;;7383735;19;20022;-66
2024/02/11 08:18:56;;;;;;;72.05;41.25;;;9.60;99.90;;;;;;7384035;19;20077;-65
2024/02/11 08:21:22;;;;;;;70.50;39.55;;;9.50;99.90;;;;;;7381853;19;20078;-63
2024/02/11 08:23:49;;;;;;;71.72;41.17;;;9.50;99.90;;;;;;7367256;19;20491;-65
2024/02/11 08:26:15;;;;;;;75.65;43.30;;;9.60;99.90;;;;;;7382893;19;20042;-65
2024/02/11 08:28:42;;;;;;;76.95;41.90;;;9.60;99.90;;;;;;7378787;19;20026;-65
2024/02/11 08:31:09;;;;;;;77.47;41.88;;;9.60;99.90;;;;;;7372655;19;20022;-63
2024/02/11 08:33:35;;;;;;;67.50;41.38;;;9.60;99.90;;;;;;7373427;19;20619;-66
2024/02/11 08:36:02;;;;;;;70.70;41.28;;;9.60;99.90;;;;;;7371623;19;20466;-64
2024/02/11 08:38:30;;;;;;;74.07;43.70;;;9.60;99.90;;;;;;7374435;19;20017;-64
2024/02/11 08:40:56;;;;;;;64.78;40.47;;;9.70;99.90;;;;;;7373303;19;20018;-64
2024/02/11 08:43:25;;;;;;;72.47;41.40;;;9.70;99.90;;;;;;7370156;19;20026;-64
2024/02/11 08:45:52;;;;;;;70.18;41.25;;;9.70;99.90;;;;;;7372312;19;20018;-64
2024/02/11 08:48:20;;;;;;;72.07;39.45;;;9.70;99.90;;;;;;7367872;19;20041;-65
2024/02/11 08:50:47;;;;;;;66.47;39.53;;;9.70;99.90;;;;;;7374625;19;20100;-66
2024/02/11 08:53:15;;;;;;;65.03;41.25;;;9.70;99.90;;;;;;7375382;19;20022;-64
2024/02/11 08:55:42;;;;;;;70.93;41.95;;;9.70;99.90;;;;;;7372439;19;20482;-64
2024/02/11 08:58:09;;;;;;;71.43;42.22;;;9.70;99.90;;;;;;7374539;19;19999;-64
2024/02/11 09:00:36;;;;;;;66.68;40.92;;;9.70;99.90;;;;;;7370618;19;20019;-64
2024/02/11 09:03:04;;;;;;;65.18;40.03;;;9.70;99.90;;;;;;7371422;19;20018;-64
2024/02/11 09:05:34;;;;;;;59.60;38.38;;;9.80;99.90;;;;;;7371398;19;20021;-63
2024/02/11 09:08:01;;;;;;;63.25;39.88;;;9.80;99.90;;;;;;7378286;19;20479;-63
2024/02/11 09:10:28;;;;;;;57.03;37.70;;;9.80;99.90;;;;;;7378469;19;20921;-66
2024/02/11 09:12:59;;;;;;;60.25;38.55;;;9.90;99.90;;;;;;7374656;19;20031;-64
2024/02/11 09:15:27;;;;;;;53.92;39.60;;;9.90;99.90;;;;;;7374683;19;20462;-64
2024/02/11 09:17:54;;;;;;;61.20;39.92;;;9.90;99.90;;;;;;7374567;19;20032;-65
2024/02/11 09:20:21;;;;;;;53.80;37.42;;;9.90;99.90;;;;;;7370609;19;20018;-64
2024/02/11 09:22:48;;;;;;;55.83;39.28;;;9.90;99.90;;;;;;7367992;19;20022;-65
2024/02/11 09:25:15;;;;;;;58.20;39.00;;;9.90;99.90;;;;;;7382752;19;20014;-67
2024/02/11 09:27:42;;;;;;;53.72;37.75;;;9.90;99.90;;;;;;7374418;19;20019;-65
2024/02/11 09:30:11;;;;;;;55.55;37.50;;;9.90;99.90;;;;;;7380549;19;20035;-66
2024/02/11 09:32:38;;;;;;;52.47;36.78;;;9.90;99.90;;;;;;7387650;19;20026;-66
2024/02/11 09:35:04;;;;;;;50.33;37.60;;;9.90;99.90;;;;;;7383014;19;20010;-64
2024/02/11 09:37:33;;;;;;;51.22;37.75;;;10.00;99.90;;;;;;7370779;19;20018;-63
2024/02/11 09:39:59;;;;;;;48.83;36.05;;;10.00;99.90;;;;;;7388254;19;20276;-65
2024/02/11 09:42:26;;;;;;;51.20;37.25;;;10.00;99.90;;;;;;7377561;19;20018;-65
2024/02/11 09:44:55;;;;;;;50.13;35.97;;;10.00;99.90;;;;;;7389810;19;20038;-65
2024/02/11 09:47:22;;;;;;;49.47;35.78;;;10.00;99.90;;;;;;7376391;19;20023;-64
2024/02/11 09:49:52;;;;;;;49.55;36.47;;;10.00;99.90;;;;;;7377339;19;20095;-64
2024/02/11 09:52:21;;;;;;;47.83;36.97;;;10.00;99.90;;;;;;7377074;19;20133;-64
2024/02/11 09:54:48;;;;;;;49.88;36.72;;;10.00;99.90;;;;;;7380575;19;20019;-64
2024/02/11 09:57:15;;;;;;;54.15;36.88;;;10.00;99.90;;;;;;7383832;19;20115;-64
2024/02/11 09:59:41;;;;;;;50.65;35.67;;;10.00;99.90;;;;;;7372604;19;20019;-64
2024/02/11 10:02:27;;;;;;;45.95;33.40;;;9.90;99.90;;;;;;7374053;19;20022;-64
2024/02/11 10:04:59;;;;;;;50.97;36.47;;;10.00;99.90;;;;;;7380558;19;20035;-64
2024/02/11 10:07:27;;;;;;;49.83;36.15;;;10.00;99.90;;;;;;7378602;19;20029;-64
2024/02/11 10:09:57;;;;;;;56.38;38.00;;;9.90;99.90;;;;;;7379627;19;20022;-65
2024/02/11 10:12:24;;;;;;;56.80;37.28;;;9.90;99.90;;;;;;7383388;19;20599;-65
2024/02/11 10:14:57;;;;;;;59.33;38.83;;;9.90;99.90;;;;;;7379476;19;20436;-65
2024/02/11 10:17:25;;;;;;;58.28;37.60;;;9.90;99.90;;;;;;7367961;19;20541;-65
2024/02/11 10:19:52;;;;;;;54.22;36.72;;;9.90;99.90;;;;;;7374732;19;20531;-66
2024/02/11 10:22:21;;;;;;;49.20;34.33;;;9.90;99.90;;;;;;7381382;19;20022;-64
2024/02/11 10:24:49;;;;;;;51.70;34.33;;;9.90;99.90;;;;;;7387503;19;20057;-65
2024/02/11 10:27:19;;;;;;;51.88;35.70;;;9.90;99.90;;;;;;7379116;19;20023;-64
2024/02/11 10:29:47;;;;;;;51.40;33.87;;;9.90;99.90;;;;;;7384432;19;20030;-66
2024/02/11 10:32:15;;;;;;;42.95;29.92;;;9.90;99.90;;;;;;7382236;19;20022;-66
2024/02/11 10:34:44;;;;;;;42.20;29.83;;;9.80;99.90;;;;;;7383544;19;20054;-66
2024/02/11 10:37:12;;;;;;;38.08;27.98;;;9.80;99.90;;;;;;7380965;19;20029;-65
2024/02/11 10:39:39;;;;;;;33.30;25.13;;;9.80;99.90;;;;;;7382613;19;20486;-65
2024/02/11 10:42:08;;;;;;;24.98;20.33;;;9.80;99.90;;;;;;7384555;19;20537;-64
2024/02/11 10:44:38;;;;;;;21.25;18.42;;;9.70;99.90;;;;;;7380119;19;20328;-65
2024/02/11 10:47:06;;;;;;;19.38;17.20;;;9.70;99.90;;;;;;7384761;19;20030;-66
2024/02/11 10:49:32;;;;;;;15.93;13.73;;;9.60;99.90;;;;;;7382183;19;20007;-64
2024/02/11 10:52:05;;;;;;;12.63;10.57;;;9.30;99.90;;;;;;7381260;19;20025;-65
2024/02/11 10:54:42;;;;;;;16.27;10.45;;;9.20;99.90;;;;;;7382348;19;20868;-64
2024/02/11 10:57:19;;;;;;;10.32;8.23;;;9.00;99.90;;;;;;7383767;19;20019;-64
2024/02/11 10:59:58;;;;;;;9.18;8.18;;;8.90;99.90;;;;;;7374743;19;20022;-65
2024/02/11 11:02:26;;;;;;;6.57;5.72;;;8.90;99.90;;;;;;7383482;19;20364;-64
2024/02/11 11:05:01;;;;;;;7.50;4.47;;;8.80;99.90;;;;;;7378617;19;20018;-65
2024/02/11 11:07:31;;;;;;;5.82;3.78;;;8.80;99.90;;;;;;7381223;19;20042;-65
2024/02/11 11:09:58;;;;;;;4.70;3.38;;;8.70;99.90;;;;;;7371448;19;20920;-64
2024/02/11 11:12:27;;;;;;;6.40;3.60;;;8.70;99.90;;;;;;7377639;19;20021;-63
2024/02/11 11:14:59;;;;;;;5.05;3.30;;;8.70;99.90;;;;;;7380458;19;20015;-62
2024/02/11 11:17:26;;;;;;;4.85;3.28;;;8.70;99.90;;;;;;7385218;19;20019;-64
2024/02/11 11:19:58;;;;;;;6.22;3.25;;;8.70;99.90;;;;;;7386692;19;20525;-65
2024/02/11 11:22:28;;;;;;;5.25;3.38;;;8.70;99.90;;;;;;7377892;19;20022;-62
2024/02/11 11:24:59;;;;;;;7.65;3.70;;;8.70;99.90;;;;;;7375447;19;20082;-63
2024/02/11 11:27:26;;;;;;;5.60;3.72;;;8.80;99.90;;;;;;7378843;19;20552;-64
2024/02/11 11:29:56;;;;;;;6.97;4.40;;;8.90;99.90;;;;;;7371282;19;20023;-63
2024/02/11 11:32:23;;;;;;;7.95;4.65;;;8.90;99.90;;;;;;7378435;19;21050;-64
2024/02/11 11:34:53;;;;;;;9.38;4.80;;;8.90;99.90;;;;;;7375439;19;20051;-64
2024/02/11 11:37:23;;;;;;;9.80;4.50;;;9.00;99.90;;;;;;7384037;19;20498;-64
2024/02/11 11:39:54;;;;;;;6.97;3.47;;;9.10;99.90;;;;;;7384527;19;20042;-64
2024/02/11 11:42:23;;;;;;;8.38;4.07;;;9.00;99.90;;;;;;7385226;19;21216;-64
2024/02/11 11:44:49;;;;;;;6.13;3.70;;;9.10;99.90;;;;;;7384796;19;20006;-65
2024/02/11 11:47:23;;;;;;;9.43;4.35;;;9.20;99.90;;;;;;7386200;19;20153;-66
2024/02/11 11:49:50;;;;;;;9.38;4.15;;;9.30;99.90;;;;;;7381903;19;20105;-65
2024/02/11 11:52:19;;;;;;;9.77;3.85;;;9.20;99.90;;;;;;7383335;19;20420;-65
2024/02/11 11:54:45;;;;;;;8.00;3.88;;;9.20;99.90;;;;;;7382963;19;20022;-65
2024/02/11 11:57:13;;;;;;;11.57;5.40;;;9.20;99.90;;;;;;7377872;19;20376;-65
2024/02/11 11:59:40;;;;;;;7.80;4.85;;;9.20;99.90;;;;;;7381903;19;20025;-66
2024/02/11 12:02:10;;;;;;;7.47;4.18;;;9.10;99.90;;;;;;7379769;19;20010;-65
2024/02/11 12:04:37;;;;;;;8.70;4.07;;;9.20;99.90;;;;;;7375030;19;20621;-65
2024/02/11 12:07:06;;;;;;;9.32;4.22;;;9.20;99.90;;;;;;7375636;19;20022;-65
2024/02/11 12:09:37;;;;;;;8.50;3.92;;;9.20;99.90;;;;;;7379719;19;20026;-66
2024/02/11 12:12:05;;;;;;;8.63;4.55;;;9.30;99.90;;;;;;7380642;19;20017;-65
2024/02/11 12:14:36;;;;;;;8.60;4.25;;;9.30;99.90;;;;;;7380816;19;20516;-65
2024/02/11 12:17:04;;;;;;;9.32;4.25;;;9.30;99.90;;;;;;7382334;19;20018;-64
2024/02/11 12:19:52;;;;;;;10.85;4.82;;;9.30;99.90;;;;;;7369678;19;20018;-64
2024/02/11 12:22:18;;;;;;;7.47;5.10;;;9.40;99.90;;;;;;7378334;19;20026;-64
2024/02/11 12:24:47;;;;;;;8.43;5.60;;;9.40;99.90;;;;;;7375990;19;20479;-65
2024/02/11 12:27:17;;;;;;;10.25;5.78;;;9.40;99.90;;;;;;7381452;19;20014;-63
2024/02/11 12:29:54;;;;;;;12.77;7.03;;;9.60;99.90;;;;;;7372544;19;20018;-64
2024/02/11 12:32:21;;;;;;;12.68;7.85;;;9.60;99.90;;;;;;7380196;19;20026;-64
2024/02/11 12:34:47;;;;;;;8.75;7.72;;;9.50;99.90;;;;;;7379258;19;20380;-64
2024/02/11 12:37:16;;;;;;;14.45;9.55;;;9.60;99.90;;;;;;7384295;19;20026;-63
2024/02/11 12:39:44;;;;;;;13.95;9.98;;;9.60;99.90;;;;;;7380220;19;20099;-64
2024/02/11 12:42:11;;;;;;;12.57;10.18;;;9.60;99.90;;;;;;7379335;19;20034;-65